createdAt,value
2022-10-17T00:01:17.201Z,88.29
2022-10-17T00:03:45.075Z,88.23
2022-10-17T00:06:15.096Z,88.15
2022-10-17T00:08:44.078Z,87.83
2022-10-17T00:11:16.593Z,88.41
2022-10-17T00:13:44.741Z,88.22
2022-10-17T00:16:13.189Z,88.05
2022-10-17T00:18:41.420Z,88.67
2022-10-17T00:21:17.200Z,87.99
2022-10-17T00:23:45.105Z,88.87
2022-10-17T00:26:14.948Z,89.96
2022-10-17T00:28:42.856Z,90.94
2022-10-17T00:31:11.773Z,90.37
2022-10-17T00:33:39.958Z,91.80
2022-10-17T00:36:10.669Z,92.20
2022-10-17T00:38:38.662Z,91.80
2022-10-17T00:41:07.807Z,92.88
2022-10-17T00:46:29.783Z,92.17
2022-10-17T00:48:58.635Z,91.93
2022-10-17T00:51:32.191Z,92.12
2022-10-17T00:54:00.979Z,91.83
2022-10-17T00:56:28.937Z,93.55
2022-10-17T00:58:57.064Z,93.42
2022-10-17T01:01:25.032Z,92.82
2022-10-17T01:03:54.385Z,93.27
2022-10-17T01:06:22.181Z,93.54
2022-10-17T01:08:50.075Z,93.19
2022-10-17T01:11:26.269Z,93.48
2022-10-17T01:13:58.222Z,92.51
2022-10-17T01:16:33.158Z,92.32
2022-10-17T01:19:10.758Z,93.77
2022-10-17T01:21:44.691Z,94.41
2022-10-17T01:24:35.105Z,93.76
2022-10-17T01:27:27.576Z,93.96
2022-10-17T01:30:31.170Z,93.46
2022-10-17T01:33:05.730Z,94.12
2022-10-17T01:35:39.455Z,93.26
2022-10-17T01:38:11.478Z,93.56
2022-10-17T01:40:44.483Z,92.81
2022-10-17T01:43:15.144Z,92.12
2022-10-17T01:45:46.886Z,92.15
2022-10-17T01:48:17.647Z,91.17
2022-10-17T01:50:50.740Z,90.46
2022-10-17T01:53:22.597Z,89.55
2022-10-17T01:55:55.420Z,88.60
2022-10-17T01:58:28.036Z,88.29
2022-10-17T02:00:56.942Z,88.62
2022-10-17T02:03:27.177Z,88.55
2022-10-17T02:05:55.211Z,88.03
2022-10-17T02:08:27.758Z,87.84
2022-10-17T02:10:59.009Z,87.49
2022-10-17T02:13:36.621Z,88.40
2022-10-17T02:16:14.028Z,88.76
2022-10-17T02:19:03.909Z,88.25
2022-10-17T02:21:37.094Z,88.52
2022-10-17T02:24:09.934Z,88.00
2022-10-17T02:26:43.439Z,87.58
2022-10-17T02:29:14.894Z,88.09
2022-10-17T02:31:48.028Z,87.26
2022-10-17T02:34:20.968Z,87.03
2022-10-17T02:36:52.072Z,86.74
2022-10-17T02:39:21.191Z,87.09
2022-10-17T02:41:49.578Z,87.16
2022-10-17T02:44:18.186Z,86.89
2022-10-17T02:46:56.084Z,86.98
2022-10-17T02:49:29.530Z,86.43
2022-10-17T02:52:03.104Z,85.83
2022-10-17T02:54:35.519Z,85.08
2022-10-17T02:57:09.217Z,84.47
2022-10-17T02:59:38.009Z,84.25
2022-10-17T03:02:06.836Z,84.30
2022-10-17T03:04:36.008Z,84.97
2022-10-17T03:07:03.942Z,84.16
2022-10-17T03:09:31.812Z,83.49
2022-10-17T03:11:59.601Z,85.49
2022-10-17T03:14:27.548Z,85.70
2022-10-17T03:16:55.465Z,86.35
2022-10-17T03:19:23.409Z,85.20
2022-10-17T03:21:53.187Z,85.51
2022-10-17T03:24:21.156Z,84.92
2022-10-17T03:26:49.125Z,85.26
2022-10-17T03:29:16.990Z,85.53
2022-10-17T03:31:44.965Z,84.57
2022-10-17T03:34:12.906Z,84.78
2022-10-17T03:36:40.735Z,83.68
2022-10-17T03:39:10.231Z,83.46
2022-10-17T03:41:38.839Z,85.24
2022-10-17T03:44:06.640Z,84.46
2022-10-17T03:46:34.714Z,84.30
2022-10-17T03:49:02.588Z,84.97
2022-10-17T03:51:31.053Z,84.56
2022-10-17T03:54:03.988Z,84.02
2022-10-17T03:56:33.201Z,83.38
2022-10-17T03:59:05.108Z,84.02
2022-10-17T04:01:36.096Z,83.22
2022-10-17T04:04:04.016Z,83.03
2022-10-17T04:06:34.870Z,82.42
2022-10-17T04:09:03.017Z,83.17
2022-10-17T04:11:39.951Z,82.67
2022-10-17T04:14:08.487Z,81.63
2022-10-17T04:16:38.516Z,82.09
2022-10-17T04:19:13.951Z,82.34
2022-10-17T04:21:45.922Z,82.42
2022-10-17T04:24:15.079Z,82.11
2022-10-17T04:26:47.214Z,82.65
2022-10-17T04:29:16.204Z,82.52
2022-10-17T04:31:45.998Z,82.66
2022-10-17T04:34:21.462Z,82.87
2022-10-17T04:36:49.393Z,83.47
2022-10-17T04:39:17.888Z,83.36
2022-10-17T04:41:48.140Z,82.88
2022-10-17T04:44:16.273Z,82.54
2022-10-17T04:46:50.278Z,82.40
2022-10-17T04:49:18.363Z,82.18
2022-10-17T04:51:49.469Z,81.45
2022-10-17T04:54:20.651Z,82.01
2022-10-17T04:56:54.890Z,81.25
2022-10-17T04:59:22.941Z,79.21
2022-10-17T05:01:58.317Z,80.37
2022-10-17T05:04:27.007Z,80.90
2022-10-17T05:06:54.958Z,81.80
2022-10-17T05:09:43.053Z,81.79
2022-10-17T05:12:13.013Z,81.54
2022-10-17T05:14:44.345Z,81.92
2022-10-17T05:17:12.317Z,81.34
2022-10-17T05:19:40.317Z,80.99
2022-10-17T05:22:09.726Z,81.80
2022-10-17T05:24:37.644Z,82.48
2022-10-17T05:27:05.502Z,81.83
2022-10-17T05:29:35.552Z,81.25
2022-10-17T05:32:10.788Z,81.80
2022-10-17T05:34:39.259Z,82.09
2022-10-17T05:37:07.150Z,81.29
2022-10-17T05:39:35.336Z,80.87
2022-10-17T05:42:05.419Z,80.69
2022-10-17T05:44:36.008Z,80.45
2022-10-17T05:47:04.076Z,79.47
2022-10-17T05:49:43.921Z,78.77
2022-10-17T05:52:15.146Z,78.58
2022-10-17T05:55:07.400Z,78.95
2022-10-17T05:57:35.339Z,77.87
2022-10-17T06:00:11.006Z,78.43
2022-10-17T06:02:50.830Z,78.30
2022-10-17T06:05:21.025Z,78.22
2022-10-17T06:07:50.138Z,78.61
2022-10-17T06:10:18.641Z,77.63
2022-10-17T06:12:46.872Z,77.55
2022-10-17T06:15:17.412Z,77.52
2022-10-17T06:17:49.574Z,77.05
2022-10-17T06:20:17.561Z,76.57
2022-10-17T06:22:45.444Z,76.28
2022-10-17T06:25:19.078Z,76.45
2022-10-17T06:27:47.028Z,76.66
2022-10-17T06:30:19.254Z,76.14
2022-10-17T06:32:47.140Z,76.42
2022-10-17T06:35:15.160Z,75.68
2022-10-17T06:37:43.076Z,75.17
2022-10-17T06:40:12.301Z,75.39
2022-10-17T06:42:41.140Z,74.58
2022-10-17T06:45:25.368Z,74.63
2022-10-17T06:47:58.179Z,74.97
2022-10-17T06:50:45.230Z,74.84
2022-10-17T06:53:24.976Z,74.46
2022-10-17T06:56:11.571Z,74.13
2022-10-17T06:58:49.460Z,74.56
2022-10-17T07:01:28.629Z,74.16
2022-10-17T07:03:59.437Z,74.56
2022-10-17T07:06:27.638Z,73.48
2022-10-17T07:08:57.508Z,74.32
2022-10-17T07:11:25.860Z,73.68
2022-10-17T07:13:54.097Z,72.45
2022-10-17T07:16:23.610Z,72.13
2022-10-17T07:19:01.289Z,71.90
2022-10-17T07:21:38.164Z,71.59
2022-10-17T07:24:08.347Z,71.32
2022-10-17T07:26:36.281Z,71.36
2022-10-17T07:29:06.360Z,71.14
2022-10-17T07:31:49.863Z,70.34
2022-10-17T07:34:19.143Z,69.72
2022-10-17T07:36:46.954Z,69.75
2022-10-17T07:39:16.838Z,68.94
2022-10-17T07:41:47.536Z,68.37
2022-10-17T07:44:15.789Z,68.10
2022-10-17T07:46:48.435Z,66.30
2022-10-17T07:49:17.334Z,65.35
2022-10-17T07:54:19.178Z,66.41
2022-10-17T07:56:50.440Z,66.99
2022-10-17T07:59:18.920Z,66.15
2022-10-17T08:01:46.937Z,66.38
2022-10-17T08:04:16.718Z,64.19
2022-10-17T08:06:45.840Z,63.23
2022-10-17T08:09:13.708Z,63.07
2022-10-17T08:11:43.749Z,64.20
2022-10-17T08:14:11.998Z,64.34
2022-10-17T08:16:39.935Z,64.77
2022-10-17T08:21:41.613Z,64.98
2022-10-17T08:24:11.234Z,65.85
2022-10-17T08:26:42.363Z,63.60
2022-10-17T08:29:14.379Z,63.43
2022-10-17T08:31:46.457Z,63.32
2022-10-17T08:34:15.846Z,62.99
2022-10-17T08:36:43.686Z,64.08
2022-10-17T08:39:12.896Z,64.05
2022-10-17T08:41:49.164Z,64.20
2022-10-17T08:44:28.580Z,63.31
2022-10-17T08:46:58.962Z,63.63
2022-10-17T08:49:31.071Z,63.69
2022-10-17T08:52:03.658Z,63.38
2022-10-17T08:54:40.388Z,63.70
2022-10-17T08:57:12.411Z,63.95
2022-10-17T08:59:40.227Z,63.41
2022-10-17T09:02:22.565Z,63.39
2022-10-17T09:05:01.738Z,63.29
2022-10-17T09:07:35.208Z,61.86
2022-10-17T09:10:11.664Z,61.59
2022-10-17T09:12:42.772Z,61.77
2022-10-17T09:15:49.009Z,61.04
2022-10-17T09:18:21.205Z,60.35
2022-10-17T09:20:53.452Z,60.55
2022-10-17T09:23:23.550Z,59.98
2022-10-17T09:25:55.538Z,59.75
2022-10-17T09:28:27.145Z,59.24
2022-10-17T09:30:58.058Z,59.28
2022-10-17T09:33:35.280Z,59.08
2022-10-17T09:36:05.683Z,59.30
2022-10-17T09:38:39.423Z,58.50
2022-10-17T09:41:43.035Z,56.56
2022-10-17T09:44:15.560Z,57.14
2022-10-17T09:46:46.046Z,55.84
2022-10-17T09:49:17.258Z,56.36
2022-10-17T09:51:45.369Z,55.62
2022-10-17T09:54:19.299Z,55.64
2022-10-17T09:57:07.018Z,55.42
2022-10-17T09:59:36.757Z,53.19
2022-10-17T10:02:18.178Z,52.37
2022-10-17T10:05:16.237Z,53.19
2022-10-17T10:07:44.894Z,52.72
2022-10-17T10:10:26.236Z,53.70
2022-10-17T10:13:08.685Z,55.16
2022-10-17T10:15:40.935Z,55.57
2022-10-17T10:18:31.962Z,55.30
2022-10-17T10:21:06.977Z,54.97
2022-10-17T10:23:39.890Z,55.70
2022-10-17T10:26:21.091Z,56.71
2022-10-17T10:28:58.638Z,56.60
2022-10-17T10:31:35.612Z,56.96
2022-10-17T10:34:15.601Z,57.03
2022-10-17T10:36:50.710Z,57.05
2022-10-17T10:39:32.565Z,57.80
2022-10-17T10:42:01.257Z,57.16
2022-10-17T10:44:32.272Z,57.27
2022-10-17T10:47:15.761Z,57.48
2022-10-17T10:49:44.035Z,57.08
2022-10-17T10:52:17.012Z,57.04
2022-10-17T10:54:51.414Z,57.65
2022-10-17T10:57:22.538Z,57.86
2022-10-17T11:00:09.604Z,57.33
2022-10-17T11:02:41.326Z,57.23
2022-10-17T11:05:13.675Z,57.43
2022-10-17T11:07:44.850Z,57.98
2022-10-17T11:10:16.248Z,57.19
2022-10-17T11:12:47.442Z,56.58
2022-10-17T11:15:21.862Z,56.67
2022-10-17T11:17:57.901Z,57.54
2022-10-17T11:20:31.758Z,57.98
2022-10-17T11:23:06.115Z,57.15
2022-10-17T11:25:35.873Z,55.97
2022-10-17T11:28:05.287Z,57.16
2022-10-17T11:33:21.636Z,57.18
2022-10-17T11:35:51.165Z,56.10
2022-10-17T11:38:23.446Z,56.43
2022-10-17T11:40:53.041Z,56.39
2022-10-17T11:43:23.323Z,56.27
2022-10-17T11:45:56.407Z,56.75
2022-10-17T11:48:26.781Z,55.14
2022-10-17T11:53:49.495Z,55.24
2022-10-17T11:56:21.006Z,54.94
2022-10-17T11:58:53.713Z,55.22
2022-10-17T12:01:28.517Z,54.61
2022-10-17T12:04:08.650Z,55.46
2022-10-17T12:06:49.271Z,55.95
2022-10-17T12:09:24.158Z,55.87
2022-10-17T12:11:54.939Z,55.91
2022-10-17T12:14:41.468Z,56.08
2022-10-17T12:17:41.002Z,56.58
2022-10-17T12:20:31.573Z,56.26
2022-10-17T12:23:04.725Z,56.13
2022-10-17T12:25:34.235Z,55.95
2022-10-17T12:28:13.665Z,55.79
2022-10-17T12:30:52.364Z,56.63
2022-10-17T12:33:23.945Z,56.37
2022-10-17T12:35:52.900Z,56.98
2022-10-17T12:38:26.062Z,57.54
2022-10-17T12:41:07.536Z,56.62
2022-10-17T12:43:48.329Z,55.86
2022-10-17T12:46:55.331Z,55.14
2022-10-17T12:49:38.805Z,55.92
2022-10-17T12:52:29.525Z,56.55
2022-10-17T12:55:12.161Z,57.42
2022-10-17T12:57:55.476Z,57.45
2022-10-17T13:00:28.408Z,57.83
2022-10-17T13:02:58.177Z,58.57
2022-10-17T13:05:32.544Z,58.21
2022-10-17T13:08:02.165Z,57.42
2022-10-17T13:10:32.273Z,56.72
2022-10-17T13:13:07.352Z,56.50
2022-10-17T13:15:35.978Z,58.24
2022-10-17T13:18:03.700Z,57.92
2022-10-17T13:20:33.533Z,57.40
2022-10-17T13:23:01.380Z,58.49
2022-10-17T13:25:29.581Z,58.92
2022-10-17T13:28:12.120Z,58.19
2022-10-17T13:30:39.898Z,58.73
2022-10-17T13:33:22.557Z,60.34
2022-10-17T13:36:06.932Z,60.99
2022-10-17T13:38:36.786Z,61.28
2022-10-17T13:41:34.277Z,60.93
2022-10-17T13:44:02.690Z,62.46
2022-10-17T13:46:37.840Z,62.71
2022-10-17T13:49:17.227Z,61.37
2022-10-17T13:51:48.855Z,61.13
2022-10-17T13:54:30.425Z,61.80
2022-10-17T13:56:58.445Z,62.07
2022-10-17T13:59:31.272Z,62.59
2022-10-17T14:02:01.560Z,63.09
2022-10-17T14:04:39.996Z,62.74
2022-10-17T14:07:25.618Z,63.27
2022-10-17T14:09:53.396Z,63.15
2022-10-17T14:12:21.616Z,63.83
2022-10-17T14:15:09.872Z,63.63
2022-10-17T14:17:38.585Z,63.24
2022-10-17T14:20:40.698Z,64.02
2022-10-17T14:23:21.401Z,65.07
2022-10-17T14:25:45.989Z,65.99
2022-10-17T14:28:16.791Z,65.25
2022-10-17T14:31:01.156Z,64.33
2022-10-17T14:33:30.712Z,64.75
2022-10-17T14:36:00.167Z,65.35
2022-10-17T14:38:30.334Z,66.35
2022-10-17T14:41:23.298Z,65.21
2022-10-17T14:43:54.368Z,65.41
2022-10-17T14:46:22.267Z,65.89
2022-10-17T14:48:54.636Z,65.74
2022-10-17T14:51:22.409Z,66.00
2022-10-17T14:54:20.810Z,66.72
2022-10-17T14:56:51.707Z,66.67
2022-10-17T14:59:51.745Z,66.79
2022-10-17T15:02:10.237Z,65.98
2022-10-17T15:04:37.997Z,66.77
2022-10-17T15:07:06.082Z,65.96
2022-10-17T15:09:35.188Z,66.46
2022-10-17T15:12:03.517Z,66.37
2022-10-17T15:14:31.304Z,67.19
2022-10-17T15:16:59.048Z,68.03
2022-10-17T15:19:26.784Z,67.55
2022-10-17T15:21:54.529Z,67.08
2022-10-17T15:24:22.291Z,66.98
2022-10-17T15:26:51.460Z,65.53
2022-10-17T15:29:19.238Z,66.37
2022-10-17T15:31:47.004Z,66.68
2022-10-17T15:34:14.802Z,67.11
2022-10-17T15:36:43.886Z,66.43
2022-10-17T15:39:11.736Z,66.53
2022-10-17T15:41:39.541Z,67.51
2022-10-17T15:44:08.661Z,66.66
2022-10-17T15:46:36.684Z,67.46
2022-10-17T15:49:07.469Z,67.70
2022-10-17T15:51:35.473Z,67.22
2022-10-17T15:54:03.305Z,67.93
2022-10-17T15:56:35.787Z,68.60
2022-10-17T15:59:04.249Z,70.35
2022-10-17T16:01:34.617Z,70.19
2022-10-17T16:04:02.454Z,71.19
2022-10-17T16:06:30.418Z,71.90
2022-10-17T16:08:58.198Z,72.88
2022-10-17T16:11:29.773Z,72.49
2022-10-17T16:14:00.384Z,73.12
2022-10-17T16:16:29.915Z,73.35
2022-10-17T16:18:59.538Z,75.15
2022-10-17T16:24:02.657Z,76.18
2022-10-17T16:26:30.467Z,75.30
2022-10-17T16:29:02.560Z,76.81
2022-10-17T16:31:32.798Z,77.09
2022-10-17T16:34:03.398Z,80.88
2022-10-17T16:36:31.253Z,89.04
2022-10-17T16:38:59.227Z,87.74
2022-10-17T16:41:29.013Z,87.13
2022-10-17T16:43:59.108Z,89.28
2022-10-17T16:46:28.084Z,89.76
2022-10-17T16:48:56.104Z,92.01
2022-10-17T16:51:25.645Z,93.95
2022-10-17T16:53:54.452Z,94.90
2022-10-17T16:56:23.509Z,95.52
2022-10-17T16:58:51.827Z,96.61
2022-10-17T17:01:23.081Z,100.00
2022-10-17T17:03:51.426Z,87.24
2022-10-17T17:06:20.759Z,87.03
2022-10-17T17:08:49.908Z,85.68
2022-10-17T17:11:19.422Z,83.11
2022-10-17T17:13:47.777Z,82.88
2022-10-17T17:16:17.078Z,83.69
2022-10-17T17:18:45.996Z,88.08
2022-10-17T17:21:14.395Z,87.91
2022-10-17T17:23:43.343Z,86.96
2022-10-17T17:26:13.769Z,86.46
2022-10-17T17:28:42.324Z,87.18
2022-10-17T17:31:11.320Z,86.30
2022-10-17T17:33:40.236Z,83.33
2022-10-17T17:36:08.853Z,83.66
2022-10-17T17:38:37.301Z,83.38
2022-10-17T17:41:05.529Z,82.77
2022-10-17T17:43:34.879Z,82.04
2022-10-17T17:46:03.057Z,81.54
2022-10-17T17:48:30.865Z,83.42
2022-10-17T17:50:58.633Z,84.85
2022-10-17T17:53:26.397Z,85.97
2022-10-17T17:56:02.422Z,85.14
2022-10-17T17:58:30.178Z,85.04
2022-10-17T18:00:59.484Z,84.93
2022-10-17T18:03:27.658Z,85.27
2022-10-17T18:05:55.516Z,83.65
2022-10-17T18:08:23.293Z,83.57
2022-10-17T18:10:54.413Z,84.00
2022-10-17T18:13:22.155Z,84.49
2022-10-17T18:15:51.867Z,84.08
2022-10-17T18:18:21.034Z,82.83
2022-10-17T18:20:48.767Z,82.95
2022-10-17T18:23:17.766Z,83.01
2022-10-17T18:25:54.493Z,83.51
2022-10-17T18:28:22.307Z,83.38
2022-10-17T18:30:50.422Z,82.54
2022-10-17T18:33:18.222Z,83.27
2022-10-17T18:35:47.576Z,81.61
2022-10-17T18:38:15.317Z,82.03
2022-10-17T18:40:45.076Z,81.51
2022-10-17T18:43:15.037Z,80.57
2022-10-17T18:45:42.791Z,79.55
2022-10-17T18:48:10.498Z,78.64
2022-10-17T18:50:39.868Z,78.30
2022-10-17T18:53:09.016Z,77.25
2022-10-17T18:55:40.063Z,77.43
2022-10-17T18:58:07.911Z,77.23
2022-10-17T19:00:35.733Z,78.32
2022-10-17T19:03:04.153Z,79.09
2022-10-17T19:05:33.938Z,78.25
2022-10-17T19:08:01.757Z,77.92
2022-10-17T19:10:30.875Z,77.19
2022-10-17T19:12:58.685Z,77.82
2022-10-17T19:15:26.620Z,77.99
2022-10-17T19:17:54.382Z,78.21
2022-10-17T19:20:22.225Z,77.90
2022-10-17T19:22:50.061Z,78.44
2022-10-17T19:25:17.933Z,78.67
2022-10-17T19:27:47.102Z,79.34
2022-10-17T19:30:14.839Z,79.72
2022-10-17T19:32:42.578Z,78.97
2022-10-17T19:35:12.265Z,77.57
2022-10-17T19:37:39.972Z,78.13
2022-10-17T19:40:09.227Z,78.50
2022-10-17T19:42:37.000Z,78.09
2022-10-17T19:45:07.621Z,79.11
2022-10-17T19:47:35.400Z,78.42
2022-10-17T19:52:32.247Z,77.54
2022-10-17T19:55:00.237Z,77.05
2022-10-17T19:57:27.952Z,76.44
2022-10-17T19:59:56.208Z,76.21
2022-10-17T20:02:25.469Z,74.98
2022-10-17T20:07:40.799Z,75.98
2022-10-17T20:10:09.238Z,76.74
2022-10-17T20:12:36.969Z,77.74
2022-10-17T20:15:06.005Z,78.43
2022-10-17T20:20:09.069Z,78.93
2022-10-17T20:22:36.849Z,77.62
2022-10-17T20:25:04.829Z,78.33
2022-10-17T20:27:32.579Z,77.04
2022-10-17T20:30:01.835Z,77.69
2022-10-17T20:32:31.588Z,76.61
2022-10-17T20:35:01.129Z,76.50
2022-10-17T20:37:29.078Z,76.69
2022-10-17T20:40:22.766Z,76.78
2022-10-17T20:42:44.676Z,76.29
2022-10-17T20:45:12.666Z,76.75
2022-10-17T20:47:47.050Z,76.75
2022-10-17T20:50:17.354Z,77.78
2022-10-17T20:52:45.134Z,77.12
2022-10-17T20:55:12.909Z,79.18
2022-10-17T20:57:40.733Z,79.92
2022-10-17T21:00:09.709Z,79.02
2022-10-17T21:02:37.478Z,78.06
2022-10-17T21:05:05.802Z,77.49
2022-10-17T21:07:34.937Z,76.97
2022-10-17T21:10:17.629Z,77.14
2022-10-17T21:12:54.298Z,77.14
2022-10-17T21:15:22.377Z,77.92
2022-10-17T21:17:50.121Z,77.90
2022-10-17T21:20:18.229Z,77.70
2022-10-17T21:22:47.388Z,77.39
2022-10-17T21:25:15.364Z,77.59
2022-10-17T21:27:43.146Z,76.75
2022-10-17T21:30:11.813Z,76.71
2022-10-17T21:32:55.048Z,76.79
2022-10-17T21:35:23.202Z,76.41
2022-10-17T21:37:52.296Z,75.97
2022-10-17T21:40:20.061Z,75.70
2022-10-17T21:42:47.824Z,75.49
2022-10-17T21:45:25.138Z,76.01
2022-10-17T21:48:12.193Z,75.39
2022-10-17T21:50:41.146Z,76.44
2022-10-17T21:53:10.649Z,76.05
2022-10-17T21:55:38.669Z,76.17
2022-10-17T21:58:06.405Z,75.63
2022-10-17T22:00:34.268Z,75.53
2022-10-17T22:03:02.134Z,75.51
2022-10-17T22:05:31.684Z,75.20
2022-10-17T22:07:59.821Z,75.39
2022-10-17T22:10:28.921Z,75.40
2022-10-17T22:12:56.693Z,75.25
2022-10-17T22:15:24.466Z,75.28
2022-10-17T22:17:52.224Z,74.97
2022-10-17T22:20:19.974Z,75.69
2022-10-17T22:22:47.845Z,75.77
2022-10-17T22:25:15.665Z,75.47
2022-10-17T22:27:44.809Z,75.69
2022-10-17T22:30:13.025Z,75.42
2022-10-17T22:32:40.786Z,75.44
2022-10-17T22:35:09.209Z,75.55
2022-10-17T22:37:37.004Z,76.08
2022-10-17T22:40:05.625Z,75.71
2022-10-17T22:42:34.616Z,75.99
2022-10-17T22:45:03.900Z,75.68
2022-10-17T22:47:32.554Z,75.35
2022-10-17T22:50:00.387Z,75.94
2022-10-17T22:52:28.292Z,76.05
2022-10-17T22:54:56.185Z,75.70
2022-10-17T22:57:23.935Z,75.45
2022-10-17T22:59:51.713Z,74.22
2022-10-17T23:02:20.893Z,73.58
2022-10-17T23:04:48.673Z,75.68
2022-10-17T23:07:16.449Z,76.41
2022-10-17T23:09:44.546Z,76.26
2022-10-17T23:12:12.298Z,75.34
2022-10-17T23:14:43.160Z,74.90
2022-10-17T23:17:11.452Z,74.54
2022-10-17T23:19:40.948Z,74.20
2022-10-17T23:22:09.650Z,74.68
2022-10-17T23:24:37.574Z,75.44
2022-10-17T23:27:05.389Z,74.46
2022-10-17T23:29:33.729Z,74.66
2022-10-17T23:32:01.970Z,75.38
2022-10-17T23:34:30.405Z,75.39
2022-10-17T23:36:59.762Z,74.92
2022-10-17T23:39:27.569Z,74.75
2022-10-17T23:41:55.352Z,75.29
2022-10-17T23:44:23.506Z,75.63
2022-10-17T23:46:51.320Z,75.13
2022-10-17T23:49:19.077Z,75.35
2022-10-17T23:51:46.910Z,75.57
2022-10-17T23:54:16.305Z,75.00
2022-10-17T23:56:44.050Z,74.93
2022-10-17T23:59:12.036Z,75.75
